Main page
METAR-TAF:

METAR-TAF

Airports :

Chanute Martin Johnson Airport

Chanute, Kansas, United States

latitude: 37-40-13N, longitude: 095-29-03W, elevation: 1000 ft

Current weather observation

The report was made 15 minutes ago, at 01:52 UTC
Wind 9 mph from the South
Temperature 90°F
Humidity 56%
Pressure 29.84 in. Hg
Visibility: 10 miles
Clear sky

METAR: KCNU 250152Z AUTO 18008KT 10SM CLR 32/22 A2984 RMK AO2 SLP090 T03170222

Time: 21:07 (02:07 UTC)

Forecast

The report was made 2 hours and 47 minutes ago, at 23:20 UTC
Forecast valid from 25 at 00 UTC to 25 at 24 UTC
Wind 15 mph from the South
Visibility: 6 miles
Few clouds at a height of 25000 ft
From 25 at 1600 UTC
Wind 17 mph from the South/Southwest with gusts up to 26 mph
Visibility: 6 miles
Few clouds at a height of 22000 ft

TAF: KCNU 242320Z 2500/2524 18013KT P6SM FEW250 FM251600 20015G23KT P6SM FEW220

Weather observations and forecasts of more than 4000 airports (METAR and TAF reports).

The available stations are represented by yellow and red dots on the map.

Hover mouse over dot to see the name of the station.

Then click to see weather observations and forecasts.

To change the map : click on the green buttons with a black cross to zoom in, on the green button with a dash to zoom out, or on the green arrows for adjacent maps.


METAR-TAF: